Time;durP1;ratioP1;P1;durP2;ratioP2;P2;SDS_P1;SDS_P2;PMS_P1;PMS_P2;Temp;Humidity;BMP_temperature;BMP_pressure;BME280_temperature;BME280_humidity;BME280_pressure;Samples;Min_cycle;Max_cycle;Signal;HPM_P1;HPM_P2
2021/04/20 00:02:15;;;;;;;34.63;30.17;;;7.30;99.90;;;;;;10501414;28;20630;-80
2021/04/20 00:07:17;;;;;;;34.57;30.83;;;7.20;99.90;;;;;;10499903;28;20240;-80
2021/04/20 00:12:19;;;;;;;36.30;31.17;;;7.20;99.90;;;;;;10501624;28;20644;-81
2021/04/20 00:17:21;;;;;;;33.20;29.40;;;7.20;99.90;;;;;;10485242;28;20255;-81
2021/04/20 00:22:23;;;;;;;37.17;31.70;;;7.20;99.90;;;;;;10484216;28;20200;-80
2021/04/20 00:27:24;;;;;;;37.53;32.10;;;7.20;99.90;;;;;;10481967;28;20232;-81
2021/04/20 00:32:27;;;;;;;33.30;29.70;;;7.20;99.90;;;;;;10500168;28;20805;-81
2021/04/20 00:37:29;;;;;;;36.87;32.57;;;7.20;99.90;;;;;;10499519;28;20577;-81
2021/04/20 00:42:30;;;;;;;34.67;30.83;;;7.10;99.90;;;;;;10501697;28;20563;-81
2021/04/20 00:47:35;;;;;;;34.17;30.43;;;7.10;99.90;;;;;;10501432;28;20216;-81
2021/04/20 00:52:36;;;;;;;35.50;29.67;;;7.10;99.90;;;;;;10502694;28;20185;-80
2021/04/20 00:57:39;;;;;;;38.77;32.50;;;7.10;99.90;;;;;;10500766;28;20592;-80
2021/04/20 01:02:41;;;;;;;35.97;31.00;;;7.10;99.90;;;;;;10479719;28;20326;-81
2021/04/20 01:07:44;;;;;;;34.70;30.13;;;7.10;99.90;;;;;;10485184;28;20270;-79
2021/04/20 01:12:45;;;;;;;36.83;31.30;;;7.10;99.90;;;;;;10503636;28;20208;-80
2021/04/20 01:17:48;;;;;;;33.47;29.00;;;7.00;99.90;;;;;;10498457;28;20212;-80
2021/04/20 01:22:54;;;;;;;35.60;31.77;;;7.00;99.90;;;;;;10482733;28;20212;-80
2021/04/20 01:27:57;;;;;;;33.50;29.57;;;7.00;99.90;;;;;;10482860;28;20220;-81
2021/04/20 01:33:03;;;;;;;36.20;30.47;;;7.00;99.90;;;;;;10501398;28;20203;-81
2021/04/20 01:38:05;;;;;;;35.70;30.07;;;7.00;99.90;;;;;;10502311;28;20209;-81
2021/04/20 01:43:12;;;;;;;38.37;32.30;;;6.90;99.90;;;;;;10491035;28;20730;-80
2021/04/20 01:48:14;;;;;;;38.73;32.47;;;7.00;99.90;;;;;;10506852;28;20236;-81
2021/04/20 01:53:16;;;;;;;42.17;32.37;;;7.00;99.90;;;;;;10509064;28;20215;-81
2021/04/20 01:58:18;;;;;;;38.50;32.60;;;7.10;99.90;;;;;;10507587;28;20228;-81
2021/04/20 02:03:21;;;;;;;37.80;32.03;;;7.10;99.90;;;;;;10509014;28;20196;-81
2021/04/20 02:08:23;;;;;;;44.27;35.10;;;7.20;99.90;;;;;;10510017;28;20236;-81
2021/04/20 02:13:26;;;;;;;43.13;36.37;;;7.20;99.90;;;;;;10509623;28;20220;-81
2021/04/20 02:18:28;;;;;;;42.03;37.03;;;7.10;99.90;;;;;;10491640;28;20223;-81
2021/04/20 02:23:30;;;;;;;40.30;35.50;;;7.10;99.90;;;;;;10511927;28;20184;-81
2021/04/20 02:28:33;;;;;;;36.00;32.27;;;7.10;99.90;;;;;;10510484;28;20220;-81
2021/04/20 02:33:35;;;;;;;36.33;32.47;;;7.10;99.90;;;;;;10511463;28;20196;-81
2021/04/20 02:38:38;;;;;;;34.00;30.60;;;7.00;99.90;;;;;;10509582;28;20204;-81
2021/04/20 02:43:40;;;;;;;33.47;30.07;;;7.00;99.90;;;;;;10493552;28;20225;-81
2021/04/20 02:48:43;;;;;;;35.07;31.60;;;7.10;99.90;;;;;;10498667;28;20220;-81
2021/04/20 02:53:45;;;;;;;30.23;27.13;;;7.00;99.90;;;;;;10504439;28;20271;-80
2021/04/20 02:58:49;;;;;;;29.80;27.00;;;7.00;99.90;;;;;;10502405;28;20219;-81
2021/04/20 03:03:51;;;;;;;28.67;25.77;;;7.00;99.90;;;;;;10504801;28;20387;-81
2021/04/20 03:08:53;;;;;;;29.67;26.77;;;7.00;99.90;;;;;;10503032;28;20212;-81
2021/04/20 03:14:00;;;;;;;27.83;25.23;;;7.00;99.90;;;;;;10503645;28;20200;-81
2021/04/20 03:19:03;;;;;;;31.67;28.37;;;7.00;99.90;;;;;;10504341;28;20192;-81
2021/04/20 03:24:06;;;;;;;31.27;27.90;;;7.00;99.90;;;;;;10487915;28;20249;-81
2021/04/20 03:29:10;;;;;;;33.70;28.57;;;7.10;99.90;;;;;;10556186;23;20224;-78
2021/04/20 03:34:21;;;;;;;31.40;27.40;;;7.10;99.90;;;;;;10539694;28;20275;-77
2021/04/20 03:39:24;;;;;;;35.60;30.67;;;7.10;99.90;;;;;;10497564;28;20283;-77
2021/04/20 03:44:30;;;;;;;36.50;28.57;;;7.20;99.90;;;;;;10496281;28;20227;-77
2021/04/20 03:49:34;;;;;;;35.90;29.20;;;7.20;99.90;;;;;;10496827;28;20699;-77
2021/04/20 03:54:36;;;;;;;34.67;30.87;;;7.20;99.90;;;;;;10495456;28;20222;-77
2021/04/20 03:59:42;;;;;;;36.50;31.57;;;7.30;99.90;;;;;;10494405;28;20207;-78
2021/04/20 04:04:45;;;;;;;32.80;29.07;;;7.30;99.90;;;;;;10490932;28;20727;-77
2021/04/20 04:09:49;;;;;;;38.40;33.30;;;7.40;99.90;;;;;;10496220;28;20216;-77
2021/04/20 04:14:55;;;;;;;39.17;31.83;;;7.50;99.90;;;;;;10496216;28;20235;-77
2021/04/20 04:19:58;;;;;;;37.30;29.80;;;7.50;99.90;;;;;;10497488;28;20277;-78
2021/04/20 04:25:01;;;;;;;37.40;31.77;;;7.50;99.90;;;;;;10498720;28;20658;-78
2021/04/20 04:30:08;;;;;;;39.80;32.80;;;7.40;99.90;;;;;;10497764;28;20212;-78
2021/04/20 04:35:11;;;;;;;41.63;32.37;;;7.40;99.90;;;;;;10498809;28;20240;-78
2021/04/20 04:40:16;;;;;;;36.97;31.60;;;7.30;99.90;;;;;;10497201;28;20197;-77
2021/04/20 04:45:19;;;;;;;35.40;30.93;;;7.20;99.90;;;;;;10492317;28;20265;-78
2021/04/20 04:50:21;;;;;;;34.27;29.37;;;7.10;99.90;;;;;;10497199;28;20216;-78
2021/04/20 04:55:23;;;;;;;34.67;30.43;;;7.10;99.90;;;;;;10498251;28;20209;-78
2021/04/20 05:00:26;;;;;;;34.77;31.00;;;7.00;99.90;;;;;;10497641;28;20276;-78
2021/04/20 05:05:28;;;;;;;35.80;31.87;;;7.00;99.90;;;;;;10496864;28;20469;-78
2021/04/20 05:10:30;;;;;;;34.70;30.90;;;7.00;99.90;;;;;;10497891;28;20507;-78
2021/04/20 05:15:33;;;;;;;32.70;29.00;;;7.10;99.90;;;;;;10496063;28;20287;-78
2021/04/20 05:20:36;;;;;;;34.23;28.53;;;7.10;99.90;;;;;;10497508;28;20331;-78
2021/04/20 05:25:38;;;;;;;33.23;29.70;;;7.10;99.90;;;;;;10495576;28;20710;-78
2021/04/20 05:30:40;;;;;;;33.97;30.27;;;7.20;99.90;;;;;;10495162;28;20220;-78
2021/04/20 05:35:42;;;;;;;31.37;28.03;;;7.20;99.90;;;;;;10488914;28;20223;-78
2021/04/20 05:40:46;;;;;;;34.60;30.20;;;7.20;99.90;;;;;;10454573;28;20200;-78
2021/04/20 05:45:48;;;;;;;33.20;29.30;;;7.30;99.90;;;;;;10454376;28;20627;-78
2021/04/20 05:50:51;;;;;;;32.10;28.17;;;7.40;99.90;;;;;;10455570;28;20257;-78
2021/04/20 05:55:53;;;;;;;36.37;30.90;;;7.50;99.90;;;;;;10455065;28;20259;-78
2021/04/20 06:00:55;;;;;;;33.90;30.30;;;7.60;99.90;;;;;;10454562;28;20327;-78
2021/04/20 06:05:58;;;;;;;31.27;27.90;;;7.70;99.90;;;;;;10437214;28;20217;-78
2021/04/20 06:11:00;;;;;;;31.70;28.57;;;7.80;99.90;;;;;;10454055;28;20695;-78
2021/04/20 06:16:03;;;;;;;30.03;26.80;;;7.90;99.90;;;;;;10454794;28;20209;-78
2021/04/20 06:21:07;;;;;;;30.53;27.30;;;7.90;99.90;;;;;;10454890;28;20182;-78
2021/04/20 06:26:09;;;;;;;29.30;25.10;;;8.00;99.90;;;;;;10457826;28;20704;-78
2021/04/20 06:31:14;;;;;;;32.03;28.67;;;8.10;99.90;;;;;;10463553;28;20689;-78
2021/04/20 06:36:16;;;;;;;30.87;27.53;;;8.20;99.90;;;;;;10462147;28;20217;-78
2021/04/20 06:41:23;;;;;;;28.37;25.47;;;8.30;99.90;;;;;;10463295;28;20646;-78
2021/04/20 06:46:31;;;;;;;30.40;27.10;;;8.30;99.90;;;;;;10465820;28;20249;-78
2021/04/20 06:51:37;;;;;;;29.80;26.80;;;8.40;99.90;;;;;;10465584;28;20582;-77
2021/04/20 06:56:57;;;;;;;31.80;28.40;;;8.60;99.90;;;;;;10457700;28;20217;-79
2021/04/20 07:07:58;;;;;;;31.10;27.80;;;8.80;99.90;;;;;;10458685;28;20502;-79
2021/04/20 07:13:04;;;;;;;31.73;28.30;;;9.10;99.90;;;;;;10457676;28;20189;-78
2021/04/20 07:18:36;;;;;;;31.30;28.00;;;9.40;99.90;;;;;;10440456;28;20689;-79
2021/04/20 07:23:54;;;;;;;31.50;28.30;;;9.70;99.90;;;;;;10442458;28;20193;-79
2021/04/20 07:29:10;;;;;;;30.20;26.80;;;10.00;99.90;;;;;;10459781;28;20220;-79
2021/04/20 07:34:25;;;;;;;28.63;25.63;;;10.00;99.90;;;;;;10461902;28;20189;-79
2021/04/20 07:39:37;;;;;;;28.73;25.73;;;10.10;99.90;;;;;;10444356;28;20197;-79
2021/04/20 07:44:46;;;;;;;28.77;25.70;;;10.20;99.90;;;;;;10446134;28;20611;-79
2021/04/20 07:49:57;;;;;;;27.97;25.07;;;10.40;99.90;;;;;;10464026;28;20376;-79
2021/04/20 07:55:08;;;;;;;28.00;25.20;;;10.60;99.90;;;;;;10446476;28;20240;-79
2021/04/20 08:00:14;;;;;;;23.80;21.30;;;10.90;99.90;;;;;;10446769;28;20224;-79
2021/04/20 08:05:25;;;;;;;23.27;20.70;;;11.10;99.90;;;;;;10464558;28;20205;-79
2021/04/20 08:10:32;;;;;;;22.73;20.17;;;11.50;99.90;;;;;;10464082;28;20213;-79
2021/04/20 08:15:38;;;;;;;25.33;22.30;;;11.90;99.90;;;;;;10446093;28;20233;-79
2021/04/20 08:20:44;;;;;;;22.60;19.77;;;12.30;99.90;;;;;;10445504;28;20196;-80
2021/04/20 08:25:59;;;;;;;26.13;23.40;;;12.40;99.90;;;;;;10459192;28;20251;-79
2021/04/20 08:31:07;;;;;;;23.20;19.90;;;12.60;99.90;;;;;;10441718;28;20866;-80
2021/04/20 08:36:16;;;;;;;23.83;21.40;;;12.90;99.90;;;;;;10459111;28;20267;-79
2021/04/20 08:41:24;;;;;;;23.57;21.23;;;13.20;99.90;;;;;;10457755;28;20209;-80
2021/04/20 08:46:39;;;;;;;25.13;22.07;;;13.40;99.90;;;;;;10458985;28;20710;-80
2021/04/20 08:51:53;;;;;;;27.77;23.90;;;13.50;99.90;;;;;;10442813;28;20256;-79
2021/04/20 08:57:02;;;;;;;25.97;23.27;;;13.40;99.90;;;;;;10459357;28;20224;-80
2021/04/20 09:02:20;;;;;;;26.20;21.80;;;13.40;99.90;;;;;;10460544;28;20196;-80
2021/04/20 09:07:34;;;;;;;26.83;23.33;;;13.40;99.90;;;;;;10443511;28;20212;-79
2021/04/20 09:12:37;;;;;;;25.27;22.27;;;13.50;99.90;;;;;;10460526;28;20276;-80
2021/04/20 09:17:48;;;;;;;25.90;22.60;;;13.30;99.50;;;;;;10460236;28;20213;-79
2021/04/20 09:22:59;;;;;;;24.27;21.63;;;13.30;99.70;;;;;;10462007;28;20540;-80
2021/04/20 09:28:05;;;;;;;23.20;20.80;;;13.50;99.30;;;;;;10455899;28;20217;-79
2021/04/20 09:33:11;;;;;;;22.20;18.83;;;13.50;99.10;;;;;;10486975;28;20552;-79
2021/04/20 09:38:16;;;;;;;23.70;20.67;;;13.50;99.30;;;;;;10491297;28;20221;-79
2021/04/20 09:43:27;;;;;;;20.33;17.93;;;13.50;98.40;;;;;;10486302;28;20208;-79
2021/04/20 09:48:38;;;;;;;22.47;19.80;;;13.40;98.20;;;;;;10448083;28;20672;-79
2021/04/20 09:53:55;;;;;;;20.03;18.03;;;13.50;98.70;;;;;;10447835;28;20193;-79
2021/04/20 09:59:01;;;;;;;20.93;18.67;;;13.50;98.40;;;;;;10479539;28;20220;-79
2021/04/20 10:04:07;;;;;;;20.40;18.20;;;13.60;97.20;;;;;;10496607;28;20188;-79
2021/04/20 10:09:25;;;;;;;18.90;16.93;;;13.70;98.20;;;;;;10495226;28;20259;-79
2021/04/20 10:14:32;;;;;;;20.20;17.23;;;14.00;96.70;;;;;;10493502;28;20216;-79
2021/04/20 10:19:39;;;;;;;14.67;13.00;;;14.00;95.60;;;;;;10495147;28;20197;-79
2021/04/20 10:24:48;;;;;;;15.90;14.30;;;14.00;95.80;;;;;;10494588;28;20220;-79
2021/04/20 10:29:55;;;;;;;17.67;15.87;;;13.90;95.40;;;;;;10495221;28;20217;-79
2021/04/20 10:35:00;;;;;;;15.00;13.50;;;13.90;96.20;;;;;;10496065;28;20629;-78
2021/04/20 10:40:07;;;;;;;15.50;13.93;;;14.00;95.90;;;;;;10494376;28;20588;-79
2021/04/20 10:45:09;;;;;;;13.80;12.47;;;14.20;95.00;;;;;;10494750;28;20295;-79
2021/04/20 10:50:19;;;;;;;17.43;15.63;;;14.30;94.90;;;;;;10494672;28;20216;-79
2021/04/20 10:55:26;;;;;;;14.90;13.40;;;14.50;95.00;;;;;;10494598;28;20303;-79
2021/04/20 11:00:32;;;;;;;13.87;12.43;;;14.50;92.90;;;;;;10494682;28;20188;-79
2021/04/20 11:05:34;;;;;;;15.73;14.23;;;14.40;93.90;;;;;;10495455;28;20217;-79
2021/04/20 11:10:37;;;;;;;15.27;13.77;;;14.30;94.00;;;;;;10492300;28;20627;-79
2021/04/20 11:15:39;;;;;;;14.00;12.63;;;14.30;92.80;;;;;;10492841;28;20212;-79
2021/04/20 11:20:43;;;;;;;15.83;14.10;;;14.20;94.20;;;;;;10492684;28;20192;-79
2021/04/20 11:25:56;;;;;;;14.47;13.00;;;14.20;94.50;;;;;;10491759;28;20303;-79
2021/04/20 11:30:59;;;;;;;12.80;11.03;;;14.30;93.80;;;;;;10475732;28;20216;-79
2021/04/20 11:36:05;;;;;;;14.50;13.03;;;14.40;94.10;;;;;;10457702;28;20217;-79
2021/04/20 11:41:10;;;;;;;11.20;10.00;;;14.40;92.90;;;;;;10433410;28;20568;-79
2021/04/20 11:46:21;;;;;;;14.57;13.07;;;14.50;91.30;;;;;;10451316;28;20290;-79
2021/04/20 11:51:32;;;;;;;11.90;10.70;;;14.50;92.50;;;;;;10449623;28;20283;-79
2021/04/20 11:56:37;;;;;;;11.63;10.53;;;14.50;92.60;;;;;;10451191;28;20221;-79
2021/04/20 12:01:41;;;;;;;12.07;10.80;;;14.50;90.90;;;;;;10433357;28;20244;-79
2021/04/20 12:06:45;;;;;;;12.43;10.50;;;14.50;91.80;;;;;;10449508;28;20233;-79
2021/04/20 12:11:48;;;;;;;12.47;11.20;;;14.60;91.40;;;;;;10453495;28;20228;-79
2021/04/20 12:16:52;;;;;;;13.93;12.47;;;14.60;91.30;;;;;;10452426;28;20267;-79
2021/04/20 12:21:55;;;;;;;11.57;10.40;;;14.60;91.30;;;;;;10450625;28;20188;-79
2021/04/20 12:27:01;;;;;;;11.07;10.03;;;14.60;91.00;;;;;;10451734;28;20248;-79
2021/04/20 12:32:11;;;;;;;9.23;8.33;;;14.60;89.00;;;;;;10449525;28;20217;-79
2021/04/20 12:37:13;;;;;;;10.13;8.60;;;14.60;88.80;;;;;;10450725;28;20276;-79
2021/04/20 12:42:19;;;;;;;9.00;8.20;;;14.50;82.60;;;;;;10452020;28;20197;-79
2021/04/20 12:47:27;;;;;;;9.43;8.50;;;14.40;87.70;;;;;;10451358;28;20236;-79
2021/04/20 12:52:31;;;;;;;8.90;8.00;;;14.30;87.90;;;;;;10437274;28;20757;-79
2021/04/20 12:57:37;;;;;;;10.23;9.23;;;14.20;91.80;;;;;;10450249;28;20233;-79
2021/04/20 13:02:40;;;;;;;9.73;8.80;;;14.20;87.30;;;;;;10451115;28;20189;-79
2021/04/20 13:07:43;;;;;;;10.70;9.50;;;14.20;87.00;;;;;;10450899;28;20615;-79
2021/04/20 13:12:52;;;;;;;11.00;8.53;;;14.30;88.30;;;;;;10446210;28;20244;-79
2021/04/20 13:17:57;;;;;;;8.70;7.93;;;14.40;88.10;;;;;;10446056;28;20213;-79
2021/04/20 13:23:21;;;;;;;9.13;7.30;;;14.50;85.50;;;;;;10444992;28;20438;-79
2021/04/20 13:28:32;;;;;;;8.50;7.80;;;14.50;84.10;;;;;;10449034;28;20320;-79
2021/04/20 13:33:37;;;;;;;8.37;7.57;;;14.50;86.70;;;;;;10462969;28;20281;-79
2021/04/20 13:38:39;;;;;;;7.70;7.00;;;14.40;84.30;;;;;;10495176;28;20223;-79
2021/04/20 13:43:47;;;;;;;9.23;8.33;;;14.30;87.30;;;;;;10497250;28;20196;-79
2021/04/20 13:48:49;;;;;;;7.40;6.80;;;14.30;83.60;;;;;;10496022;28;20230;-79
2021/04/20 13:53:52;;;;;;;7.77;7.07;;;14.30;84.20;;;;;;10494354;28;20224;-79
2021/04/20 13:58:58;;;;;;;7.97;6.57;;;14.30;87.80;;;;;;10501897;28;20216;-79
2021/04/20 14:04:03;;;;;;;7.43;6.73;;;14.30;86.10;;;;;;10498639;28;20687;-79
2021/04/20 14:09:11;;;;;;;7.70;6.87;;;14.30;83.90;;;;;;10496014;28;20220;-79
2021/04/20 14:14:23;;;;;;;8.33;7.17;;;14.30;86.40;;;;;;10494417;28;20243;-79
2021/04/20 14:19:26;;;;;;;7.00;6.40;;;14.30;79.30;;;;;;10497718;28;20245;-79
2021/04/20 14:24:28;;;;;;;7.70;7.00;;;14.30;85.60;;;;;;10498511;28;20272;-79
2021/04/20 14:29:32;;;;;;;9.67;8.77;;;14.30;86.60;;;;;;10498175;28;20217;-79
2021/04/20 14:34:37;;;;;;;9.43;8.60;;;14.30;78.60;;;;;;10476578;28;20295;-79
2021/04/20 14:39:38;;;;;;;10.27;9.27;;;14.40;81.30;;;;;;10457337;28;20605;-79
2021/04/20 14:44:43;;;;;;;11.27;10.20;;;14.50;83.50;;;;;;10454042;28;20564;-79
2021/04/20 14:49:50;;;;;;;12.30;10.60;;;14.70;85.70;;;;;;10457789;28;20217;-79
2021/04/20 14:54:55;;;;;;;11.33;10.13;;;14.80;86.40;;;;;;10455723;28;20768;-79
2021/04/20 14:59:59;;;;;;;11.33;10.23;;;14.90;87.50;;;;;;10453537;28;20717;-79
2021/04/20 15:05:01;;;;;;;11.17;9.97;;;15.00;89.50;;;;;;10455609;28;20220;-79
2021/04/20 15:10:08;;;;;;;11.57;10.40;;;15.10;89.90;;;;;;10455065;28;20308;-79
2021/04/20 15:15:16;;;;;;;14.10;11.80;;;15.10;85.00;;;;;;10455920;28;20221;-79
2021/04/20 15:20:19;;;;;;;14.67;12.73;;;15.10;82.80;;;;;;10456090;28;20638;-79
2021/04/20 15:25:23;;;;;;;13.83;11.53;;;15.10;82.10;;;;;;10483541;22;20723;-81
2021/04/20 15:30:36;;;;;;;12.70;11.40;;;14.90;85.30;;;;;;10455702;28;20228;-80
2021/04/20 15:35:43;;;;;;;12.73;11.40;;;14.80;83.40;;;;;;10448099;28;20251;-80
2021/04/20 15:40:46;;;;;;;12.10;10.83;;;14.70;84.60;;;;;;10435158;28;20208;-81
2021/04/20 15:45:55;;;;;;;14.50;13.20;;;14.60;82.60;;;;;;10424367;28;20239;-81
2021/04/20 15:50:58;;;;;;;12.03;10.70;;;14.60;82.60;;;;;;10447090;28;20234;-81
2021/04/20 15:56:07;;;;;;;10.87;9.87;;;14.60;82.20;;;;;;10447038;28;20224;-80
2021/04/20 16:01:10;;;;;;;10.40;9.30;;;14.50;84.90;;;;;;10437812;28;20250;-82
2021/04/20 16:06:15;;;;;;;11.70;10.50;;;14.40;83.10;;;;;;10442815;28;20268;-82
2021/04/20 16:11:21;;;;;;;11.83;10.57;;;14.40;84.40;;;;;;10428206;28;20255;-81
2021/04/20 16:16:38;;;;;;;11.63;10.50;;;14.40;87.60;;;;;;10459010;28;20221;-82
2021/04/20 16:21:48;;;;;;;11.40;10.20;;;14.30;86.20;;;;;;10438780;28;20204;-80
2021/04/20 16:27:08;;;;;;;13.03;11.70;;;14.30;87.60;;;;;;10427172;28;20708;-81
2021/04/20 16:32:20;;;;;;;12.20;11.07;;;14.30;85.10;;;;;;10440611;28;20256;-81
2021/04/20 16:37:40;;;;;;;12.10;10.87;;;14.20;90.20;;;;;;10411012;28;20225;-81
2021/04/20 16:43:15;;;;;;;12.30;11.10;;;14.10;87.50;;;;;;10434238;28;20636;-81
2021/04/20 16:48:37;;;;;;;12.80;11.50;;;14.00;87.10;;;;;;10420114;28;20308;-80
2021/04/20 16:54:23;;;;;;;12.20;11.00;;;14.00;89.90;;;;;;10457580;28;20216;-81
2021/04/20 17:00:24;;;;;;;13.00;11.70;;;13.90;91.20;;;;;;10458728;28;20269;-81
2021/04/20 17:05:35;;;;;;;13.10;10.87;;;13.80;90.40;;;;;;10425986;28;20225;-80
2021/04/20 17:10:43;;;;;;;11.50;10.40;;;13.80;84.30;;;;;;10458432;28;20232;-79
2021/04/20 17:16:03;;;;;;;10.00;9.00;;;13.90;87.20;;;;;;10452083;28;20282;-81
2021/04/20 17:21:43;;;;;;;11.33;10.23;;;13.90;87.00;;;;;;10427915;28;20243;-81
2021/04/20 17:27:01;;;;;;;11.43;10.30;;;13.80;90.00;;;;;;10464979;28;20286;-81
2021/04/20 17:32:08;;;;;;;11.70;10.60;;;13.80;89.30;;;;;;10426707;28;20236;-81
2021/04/20 17:37:23;;;;;;;10.90;9.90;;;13.70;91.60;;;;;;10425985;28;20216;-80
2021/04/20 17:42:35;;;;;;;11.77;10.67;;;13.50;92.20;;;;;;10454073;28;20189;-80
2021/04/20 17:47:47;;;;;;;12.10;10.40;;;13.40;92.40;;;;;;10454031;28;20272;-81
2021/04/20 17:53:09;;;;;;;11.60;10.50;;;13.30;90.50;;;;;;10456152;28;20657;-80
2021/04/20 17:58:19;;;;;;;9.30;8.40;;;13.30;90.60;;;;;;10468267;28;20732;-79
2021/04/20 18:03:39;;;;;;;7.73;7.13;;;13.40;90.50;;;;;;10463643;28;20209;-81
2021/04/20 18:09:02;;;;;;;9.10;8.20;;;13.40;90.40;;;;;;10430378;28;20208;-81
2021/04/20 18:14:15;;;;;;;10.63;9.73;;;13.30;90.50;;;;;;10449242;28;20212;-81
2021/04/20 18:19:42;;;;;;;7.17;6.57;;;13.30;90.50;;;;;;10426450;28;20301;-79
2021/04/20 18:24:50;;;;;;;8.40;7.67;;;13.10;90.40;;;;;;10395956;28;20229;-82
2021/04/20 18:30:06;;;;;;;8.17;7.47;;;13.00;91.00;;;;;;10415158;28;20613;-81
2021/04/20 18:35:11;;;;;;;9.17;8.33;;;12.90;90.50;;;;;;10395509;28;20222;-82
2021/04/20 18:40:21;;;;;;;8.63;7.83;;;12.80;90.70;;;;;;10420727;28;20608;-80
2021/04/20 18:45:28;;;;;;;9.50;8.70;;;12.70;90.80;;;;;;10442883;28;20232;-79
2021/04/20 18:50:45;;;;;;;9.73;8.93;;;12.50;90.70;;;;;;10413162;28;20279;-81
2021/04/20 18:55:57;;;;;;;11.40;10.23;;;12.40;90.70;;;;;;10419630;28;20839;-79
2021/04/20 19:01:09;;;;;;;12.40;10.60;;;12.20;90.50;;;;;;10462851;28;20193;-80
2021/04/20 19:06:39;;;;;;;16.47;13.33;;;12.10;91.00;;;;;;10438387;28;20225;-80
2021/04/20 19:11:48;;;;;;;14.57;12.50;;;11.90;90.90;;;;;;10474731;28;20217;-80
2021/04/20 19:17:24;;;;;;;11.97;10.73;;;11.80;91.00;;;;;;10469487;28;20217;-80
2021/04/20 19:22:48;;;;;;;12.43;11.17;;;11.70;90.60;;;;;;10442144;28;20281;-80
2021/04/20 19:27:58;;;;;;;12.23;11.03;;;11.60;91.00;;;;;;10454629;28;20221;-80
2021/04/20 19:33:05;;;;;;;10.33;9.43;;;11.50;91.10;;;;;;10456195;28;20189;-81
2021/04/20 19:38:17;;;;;;;10.77;9.87;;;11.50;91.20;;;;;;10403347;28;20217;-80
2021/04/20 19:43:24;;;;;;;8.83;7.83;;;11.40;91.00;;;;;;10426961;28;20671;-80
2021/04/20 19:48:32;;;;;;;10.60;9.50;;;11.30;91.00;;;;;;10426585;28;20218;-80
2021/04/20 19:53:38;;;;;;;10.70;9.60;;;11.20;91.00;;;;;;10423025;28;20218;-80
2021/04/20 19:58:44;;;;;;;13.97;12.57;;;11.10;91.20;;;;;;10431447;28;20216;-81
2021/04/20 20:03:46;;;;;;;15.87;14.17;;;11.10;91.10;;;;;;10432962;28;20205;-80
2021/04/20 20:08:51;;;;;;;14.20;12.80;;;11.00;91.10;;;;;;10415707;28;20256;-80
2021/04/20 20:14:00;;;;;;;11.47;10.40;;;11.00;91.40;;;;;;10432765;28;20198;-78
2021/04/20 20:19:03;;;;;;;14.23;12.30;;;10.90;91.50;;;;;;10428739;28;20210;-80
2021/04/20 20:24:07;;;;;;;12.77;11.57;;;10.80;91.60;;;;;;10429887;28;20185;-80
2021/04/20 20:29:11;;;;;;;11.03;10.03;;;10.70;91.60;;;;;;10431948;28;20281;-79
2021/04/20 20:34:16;;;;;;;11.13;10.10;;;10.60;92.00;;;;;;10435829;28;20245;-79
2021/04/20 20:39:20;;;;;;;10.83;9.83;;;10.50;92.20;;;;;;10451079;28;20213;-79
2021/04/20 20:44:30;;;;;;;10.90;9.63;;;10.50;92.50;;;;;;10448609;28;20205;-80
2021/04/20 20:49:35;;;;;;;10.47;9.47;;;10.40;92.50;;;;;;10464614;28;20221;-78
2021/04/20 20:54:39;;;;;;;10.60;9.70;;;10.40;92.70;;;;;;10450472;28;20197;-79
2021/04/20 20:59:46;;;;;;;12.00;10.90;;;10.40;92.70;;;;;;10456782;28;20213;-82
2021/04/20 21:04:52;;;;;;;10.93;9.73;;;10.40;92.50;;;;;;10445287;28;20272;-81
2021/04/20 21:10:01;;;;;;;13.03;11.93;;;10.30;92.50;;;;;;10447862;28;20251;-79
2021/04/20 21:15:31;;;;;;;12.30;11.07;;;10.30;92.50;;;;;;10529760;22;20230;-78
2021/04/20 21:20:35;;;;;;;11.40;10.27;;;10.30;92.70;;;;;;10422393;28;20198;-80
2021/04/20 21:25:41;;;;;;;11.00;9.93;;;10.30;92.50;;;;;;10436760;23;20216;-79
2021/04/20 21:30:50;;;;;;;10.20;9.20;;;10.30;92.60;;;;;;10498351;28;20212;-79
2021/04/20 21:35:52;;;;;;;10.53;9.53;;;10.20;92.60;;;;;;10496555;28;20581;-78
2021/04/20 21:40:54;;;;;;;9.83;8.93;;;10.10;92.50;;;;;;10509187;28;20197;-79
2021/04/20 21:46:02;;;;;;;10.70;9.70;;;10.10;92.50;;;;;;10494739;28;20217;-79
2021/04/20 21:51:09;;;;;;;7.90;7.20;;;10.00;92.50;;;;;;10435549;28;20227;-77
2021/04/20 21:56:21;;;;;;;9.83;8.93;;;9.90;93.20;;;;;;10446928;28;20220;-79
2021/04/20 22:01:26;;;;;;;10.17;9.27;;;9.90;93.40;;;;;;10448589;28;20650;-79
2021/04/20 22:06:31;;;;;;;11.47;10.30;;;9.80;93.30;;;;;;10443941;28;20597;-79
2021/04/20 22:11:36;;;;;;;13.27;11.97;;;9.80;93.60;;;;;;10446870;28;20213;-79
2021/04/20 22:16:38;;;;;;;14.37;11.87;;;9.80;93.80;;;;;;10447778;28;20292;-79
2021/04/20 22:21:47;;;;;;;15.27;12.90;;;9.70;93.80;;;;;;10450183;28;20272;-80
2021/04/20 22:26:58;;;;;;;13.33;11.43;;;9.70;93.80;;;;;;10445736;28;20839;-78
2021/04/20 22:32:02;;;;;;;17.40;13.90;;;9.70;93.90;;;;;;10447479;28;20252;-79
2021/04/20 22:37:04;;;;;;;18.23;13.50;;;9.70;93.80;;;;;;10446129;28;20263;-78
2021/04/20 22:42:09;;;;;;;15.17;12.90;;;9.60;93.90;;;;;;10431562;28;20208;-79
2021/04/20 22:47:16;;;;;;;12.80;11.60;;;9.60;94.10;;;;;;10447773;28;20210;-79
2021/04/20 22:52:27;;;;;;;13.70;11.50;;;9.50;94.20;;;;;;10446223;28;20594;-78
2021/04/20 22:57:33;;;;;;;13.23;11.70;;;9.50;94.20;;;;;;10446872;28;20217;-79
2021/04/20 23:02:38;;;;;;;11.87;10.73;;;9.50;94.30;;;;;;10446980;28;20193;-79
2021/04/20 23:07:43;;;;;;;11.27;10.27;;;9.50;94.50;;;;;;10447628;28;20222;-78
2021/04/20 23:12:47;;;;;;;13.50;12.20;;;9.40;94.50;;;;;;10444310;28;20222;-79
2021/04/20 23:17:52;;;;;;;12.50;11.20;;;9.30;94.50;;;;;;10446075;28;20218;-78
2021/04/20 23:23:01;;;;;;;12.83;11.63;;;9.30;94.70;;;;;;10444877;28;20212;-79
2021/04/20 23:28:07;;;;;;;12.63;11.23;;;9.30;94.60;;;;;;10430995;28;20249;-78
2021/04/20 23:33:11;;;;;;;13.17;11.87;;;9.20;94.80;;;;;;10424493;28;20190;-77
2021/04/20 23:38:14;;;;;;;12.10;10.90;;;9.20;94.90;;;;;;10426158;28;20236;-80
2021/04/20 23:43:17;;;;;;;13.10;11.90;;;9.20;95.00;;;;;;10434944;28;20201;-78
2021/04/20 23:48:22;;;;;;;13.90;12.60;;;9.20;95.20;;;;;;10424007;28;20214;-79
2021/04/20 23:53:24;;;;;;;12.63;11.47;;;9.10;95.10;;;;;;10426289;28;20248;-79
2021/04/20 23:58:28;;;;;;;13.90;12.50;;;9.10;95.10;;;;;;10425122;28;20563;-79
